logo dgac
Lunes 08 de Marzo del 2021

Metar

Buscar por aerodromo o helipuerto
Ingrese nombre de aeródromo, localidad o designador OACI:


METAR del 08-03-2021 a las 16:00 UTC
Para mayor información visite www.meteochile.cl
METAR SABE 081600Z 33011KT 9999 FEW040 30/19 Q1014 NOSIG
Viento: dirección 330 grados, velocidad 11 nudos
Visibilidad: 10 km o más
Nubes: Escasa nubosidad a 4000 pies sobre el nivel del aeródromo
Temperatura: 30 °C
Rocío: 19 °C
Humedad_relativa: 52%
Presión: 1014 hPa
No se esperan cambios significativos en las próximas 2 horas
METAR del 08-03-2021 a las 16:00 UTC
Para mayor información visite www.meteochile.cl
METAR SLVR 081600Z 33011KT 9999 SCT017 FEW023TCU 32/23 Q1013
Viento: dirección 330 grados, velocidad 11 nudos
Visibilidad: 10 km o más
Nubes: Nubosidad parcial a 1700 pies sobre el nivel del aeródromo
Nubes: Escasa nubosidad a 2300 pies sobre el nivel del aeródromo, Cúmulos potentes
Temperatura: 32 °C
Rocío: 23 °C
Humedad_relativa: 59%
Presión: 1013 hPa
METAR del 08-03-2021 a las 16:00 UTC
Para mayor información visite www.meteochile.cl
METAR SLLP 081600Z 08005KT 030V160 9999 SCT017 FEW020CB 14/04 Q1039
Viento: dirección 080 grados, velocidad 5 nudos
Viento con dirección variable entre 030 y 160 grados
Visibilidad: 10 km o más
Nubes: Nubosidad parcial a 1700 pies sobre el nivel del aeródromo
Nubes: Escasa nubosidad a 2000 pies sobre el nivel del aeródromo, cumulonimbus
Temperatura: 14 °C
Rocío: 4 °C
Humedad_relativa: 51%
Presión: 1039 hPa
METAR del 08-03-2021 a las 16:00 UTC
Para mayor información visite www.meteochile.cl
METAR SBPA 081600Z 24007KT 200V270 9999 SCT045 SCT070 29/20 Q1011
Viento: dirección 240 grados, velocidad 7 nudos
Viento con dirección variable entre 200 y 270 grados
Visibilidad: 10 km o más
Nubes: Nubosidad parcial a 4500 pies sobre el nivel del aeródromo
Nubes: Nubosidad parcial a 7000 pies sobre el nivel del aeródromo
Temperatura: 29 °C
Rocío: 20 °C
Humedad_relativa: 58%
Presión: 1011 hPa
METAR del 08-03-2021 a las 16:00 UTC
Para mayor información visite www.meteochile.cl
METAR SBGR 081600Z 31003KT 9999 BKN036 27/17 Q1015
Viento: dirección 310 grados, velocidad 3 nudos
Visibilidad: 10 km o más
Nubes: Nublado a 3600 pies sobre el nivel del aeródromo
Temperatura: 27 °C
Rocío: 17 °C
Humedad_relativa: 54%
Presión: 1015 hPa
METAR del 08-03-2021 a las 16:00 UTC
Para mayor información visite www.meteochile.cl
METAR SBGL 081600Z 12008KT 9999 FEW020 SCT100 28/22 Q1011
Viento: dirección 120 grados, velocidad 8 nudos
Visibilidad: 10 km o más
Nubes: Escasa nubosidad a 2000 pies sobre el nivel del aeródromo
Nubes: Nubosidad parcial a 10000 pies sobre el nivel del aeródromo
Temperatura: 28 °C
Rocío: 22 °C
Humedad_relativa: 70%
Presión: 1011 hPa
METAR del 08-03-2021 a las 16:00 UTC
Para mayor información visite www.meteochile.cl
METAR SAZS 081600Z NIL
Nan: NIL
METAR del 08-03-2021 a las 16:00 UTC
Para mayor información visite www.meteochile.cl
METAR SAZN 081600Z NIL
Nan: NIL
METAR del 08-03-2021 a las 16:00 UTC
Para mayor información visite www.meteochile.cl
METAR SAZM 081600Z NIL
Nan: NIL
METAR del 08-03-2021 a las 16:00 UTC
Para mayor información visite www.meteochile.cl
METAR SAWH 081600Z NIL
Nan: NIL